createdAt,value
2023-01-19T00:00:30.308Z,7.44
2023-01-19T00:02:56.898Z,7.41
2023-01-19T00:05:23.406Z,7.06
2023-01-19T00:07:49.892Z,7.08
2023-01-19T00:10:16.736Z,7.09
2023-01-19T00:12:43.324Z,7.69
2023-01-19T00:15:10.906Z,7.47
2023-01-19T00:17:37.452Z,7.41
2023-01-19T00:20:04.247Z,7.47
2023-01-19T00:22:30.736Z,7.26
2023-01-19T00:24:57.341Z,7.09
2023-01-19T00:27:24.569Z,7.34
2023-01-19T00:29:51.072Z,7.15
2023-01-19T00:32:19.740Z,7.34
2023-01-19T00:34:49.511Z,6.94
2023-01-19T00:37:17.270Z,7.07
2023-01-19T00:39:43.797Z,7.43
2023-01-19T00:42:32.651Z,7.47
2023-01-19T00:44:59.153Z,7.14
2023-01-19T00:47:25.848Z,7.15
2023-01-19T00:49:52.708Z,7.15
2023-01-19T00:52:19.603Z,6.89
2023-01-19T00:54:46.346Z,7.13
2023-01-19T00:57:13.153Z,7.12
2023-01-19T00:59:39.644Z,7.25
2023-01-19T01:02:06.423Z,7.12
2023-01-19T01:04:34.069Z,7.35
2023-01-19T01:07:00.621Z,7.36
2023-01-19T01:09:27.834Z,7.77
2023-01-19T01:11:54.572Z,7.66
2023-01-19T01:14:21.109Z,7.70
2023-01-19T01:16:48.626Z,7.75
2023-01-19T01:19:16.098Z,7.53
2023-01-19T01:21:42.621Z,7.40
2023-01-19T01:24:09.594Z,7.66
2023-01-19T01:26:36.133Z,7.59
2023-01-19T01:29:02.680Z,7.46
2023-01-19T01:31:29.810Z,7.21
2023-01-19T01:33:57.085Z,7.24
2023-01-19T01:36:23.934Z,7.22
2023-01-19T01:38:50.928Z,7.35
2023-01-19T01:41:17.439Z,7.11
2023-01-19T01:43:45.424Z,7.15
2023-01-19T01:46:15.884Z,7.21
2023-01-19T01:48:48.477Z,7.10
2023-01-19T01:51:24.649Z,7.08
2023-01-19T01:54:07.009Z,7.33
2023-01-19T01:56:46.409Z,7.04
2023-01-19T01:59:25.733Z,7.22
2023-01-19T02:02:22.950Z,7.23
2023-01-19T02:04:56.477Z,7.41
2023-01-19T02:08:00.677Z,7.28
2023-01-19T02:10:45.947Z,7.35
2023-01-19T02:13:22.550Z,7.37
2023-01-19T02:15:58.142Z,7.36
2023-01-19T02:18:28.018Z,7.63
2023-01-19T02:21:20.075Z,7.37
2023-01-19T02:23:55.222Z,7.11
2023-01-19T02:26:25.901Z,7.06
2023-01-19T02:28:59.365Z,7.13
2023-01-19T02:31:28.279Z,7.41
2023-01-19T02:33:55.794Z,7.49
2023-01-19T02:36:27.174Z,7.06
2023-01-19T02:38:57.467Z,7.36
2023-01-19T02:41:28.501Z,7.29
2023-01-19T02:43:58.230Z,7.46
2023-01-19T02:46:25.694Z,7.32
2023-01-19T02:48:52.252Z,7.30
2023-01-19T02:51:24.555Z,7.49
2023-01-19T02:54:13.829Z,7.11
2023-01-19T02:57:16.299Z,7.44
2023-01-19T03:00:12.010Z,7.52
2023-01-19T03:02:54.806Z,7.68
2023-01-19T03:05:41.436Z,7.47
2023-01-19T03:08:23.849Z,7.93
2023-01-19T03:11:06.359Z,7.65
2023-01-19T03:14:00.895Z,7.68
2023-01-19T03:16:31.407Z,7.95
2023-01-19T03:19:10.670Z,7.93
2023-01-19T03:21:39.741Z,8.18
2023-01-19T03:24:08.099Z,7.85
2023-01-19T03:26:41.846Z,7.54
2023-01-19T03:29:10.592Z,7.86
2023-01-19T03:31:38.471Z,7.62
2023-01-19T03:34:08.074Z,7.65
2023-01-19T03:36:44.556Z,7.75
2023-01-19T03:39:14.460Z,8.01
2023-01-19T03:41:42.868Z,8.26
2023-01-19T03:44:12.065Z,8.07
2023-01-19T03:46:40.174Z,7.78
2023-01-19T03:49:08.335Z,7.99
2023-01-19T03:51:37.504Z,7.75
2023-01-19T03:54:05.593Z,7.68
2023-01-19T03:56:32.179Z,7.85
2023-01-19T03:58:59.408Z,7.46
2023-01-19T04:01:26.110Z,8.07
2023-01-19T04:03:53.105Z,7.89
2023-01-19T04:06:21.150Z,8.16
2023-01-19T04:08:49.267Z,8.31
2023-01-19T04:11:16.236Z,7.85
2023-01-19T04:13:42.782Z,7.92
2023-01-19T04:16:11.130Z,7.77
2023-01-19T04:18:37.727Z,7.70
2023-01-19T04:21:06.967Z,8.05
2023-01-19T04:23:34.338Z,7.72
2023-01-19T04:26:08.789Z,7.68
2023-01-19T04:28:36.975Z,7.61
2023-01-19T04:31:07.440Z,7.62
2023-01-19T04:33:34.359Z,7.71
2023-01-19T04:36:01.624Z,8.25
2023-01-19T04:38:28.246Z,7.92
2023-01-19T04:40:55.041Z,8.36
2023-01-19T04:43:22.730Z,8.49
2023-01-19T04:45:49.730Z,8.31
2023-01-19T04:48:18.301Z,8.37
2023-01-19T04:50:44.980Z,8.58
2023-01-19T04:53:13.509Z,8.64
2023-01-19T04:55:40.161Z,8.64
2023-01-19T04:58:06.700Z,8.38
2023-01-19T05:00:33.569Z,8.31
2023-01-19T05:03:01.559Z,8.49
2023-01-19T05:05:29.600Z,8.55
2023-01-19T05:07:56.207Z,8.55
2023-01-19T05:10:23.660Z,8.47
2023-01-19T05:12:50.209Z,7.93
2023-01-19T05:15:17.203Z,7.90
2023-01-19T05:17:43.701Z,8.04
2023-01-19T05:20:12.541Z,8.05
2023-01-19T05:22:39.953Z,8.48
2023-01-19T05:25:10.832Z,8.24
2023-01-19T05:27:38.637Z,7.87
2023-01-19T05:30:06.408Z,8.20
2023-01-19T05:32:33.092Z,7.88
2023-01-19T05:35:00.228Z,8.01
2023-01-19T05:37:27.032Z,8.01
2023-01-19T05:39:53.910Z,8.20
2023-01-19T05:42:20.911Z,8.48
2023-01-19T05:44:47.434Z,8.42
2023-01-19T05:47:13.928Z,8.79
2023-01-19T05:49:40.446Z,8.57
2023-01-19T05:52:07.630Z,8.30
2023-01-19T05:54:34.396Z,8.57
2023-01-19T05:57:01.551Z,8.59
2023-01-19T05:59:28.859Z,8.37
2023-01-19T06:01:55.614Z,8.21
2023-01-19T06:04:22.269Z,8.53
2023-01-19T06:06:49.830Z,8.21
2023-01-19T06:09:17.285Z,8.15
2023-01-19T06:11:45.880Z,8.00
2023-01-19T06:14:13.059Z,8.37
2023-01-19T06:16:40.395Z,8.72
2023-01-19T06:19:07.034Z,8.91
2023-01-19T06:21:34.310Z,8.39
2023-01-19T06:24:00.985Z,8.24
2023-01-19T06:26:27.510Z,7.98
2023-01-19T06:28:54.172Z,8.14
2023-01-19T06:31:20.703Z,8.22
2023-01-19T06:33:47.415Z,8.61
2023-01-19T06:36:13.934Z,8.26
2023-01-19T06:38:40.447Z,8.26
2023-01-19T06:41:07.020Z,8.60
2023-01-19T06:43:33.532Z,8.74
2023-01-19T06:46:00.591Z,8.51
2023-01-19T06:48:27.858Z,8.81
2023-01-19T06:50:54.884Z,8.93
2023-01-19T06:53:22.472Z,9.07
2023-01-19T06:55:49.047Z,8.61
2023-01-19T06:58:16.080Z,8.75
2023-01-19T07:00:43.078Z,8.79
2023-01-19T07:03:19.682Z,8.69
2023-01-19T07:05:47.113Z,9.09
2023-01-19T07:08:15.571Z,8.98
2023-01-19T07:11:25.071Z,9.18
2023-01-19T07:13:28.718Z,9.10
2023-01-19T07:15:55.261Z,9.29
2023-01-19T07:18:21.761Z,9.38
2023-01-19T07:20:49.211Z,9.61
2023-01-19T07:23:16.568Z,8.86
2023-01-19T07:25:46.485Z,8.75
2023-01-19T07:28:16.008Z,8.83
2023-01-19T07:30:43.584Z,8.75
2023-01-19T07:33:10.438Z,9.02
2023-01-19T07:35:37.406Z,8.79
2023-01-19T07:38:04.183Z,9.34
2023-01-19T07:40:30.886Z,9.21
2023-01-19T07:42:57.371Z,9.65
2023-01-19T07:45:23.866Z,9.76
2023-01-19T07:47:51.031Z,9.57
2023-01-19T07:50:21.234Z,9.79
2023-01-19T07:52:50.615Z,9.82
2023-01-19T07:55:17.347Z,9.37
2023-01-19T07:57:44.075Z,9.34
2023-01-19T08:00:11.374Z,9.25
2023-01-19T08:02:41.644Z,9.40
2023-01-19T08:05:08.622Z,8.69
2023-01-19T08:07:35.604Z,9.00
2023-01-19T08:10:02.114Z,8.94
2023-01-19T08:12:29.414Z,9.16
2023-01-19T08:14:55.935Z,9.09
2023-01-19T08:17:22.456Z,9.39
2023-01-19T08:19:49.448Z,9.28
2023-01-19T08:22:15.960Z,9.24
2023-01-19T08:24:42.544Z,9.31
2023-01-19T08:27:12.676Z,9.05
2023-01-19T08:29:39.527Z,8.93
2023-01-19T08:32:06.710Z,9.27
2023-01-19T08:34:33.451Z,9.27
2023-01-19T08:37:00.496Z,9.45
2023-01-19T08:39:27.392Z,9.55
2023-01-19T08:41:54.304Z,9.68
2023-01-19T08:44:21.374Z,9.54
2023-01-19T08:46:48.801Z,9.35
2023-01-19T08:49:15.854Z,9.44
2023-01-19T08:51:42.394Z,8.94
2023-01-19T08:54:09.407Z,8.74
2023-01-19T08:56:36.684Z,8.53
2023-01-19T08:59:09.496Z,9.13
2023-01-19T09:01:37.196Z,9.36
2023-01-19T09:04:04.043Z,8.86
2023-01-19T09:06:30.616Z,9.18
2023-01-19T09:08:57.648Z,9.42
2023-01-19T09:11:24.140Z,9.54
2023-01-19T09:13:50.797Z,9.61
2023-01-19T09:16:17.491Z,9.97
2023-01-19T09:18:45.806Z,9.91
2023-01-19T09:21:13.752Z,9.94
2023-01-19T09:23:40.409Z,9.59
2023-01-19T09:26:07.053Z,9.32
2023-01-19T09:28:33.721Z,9.44
2023-01-19T09:31:04.970Z,9.25
2023-01-19T09:33:31.627Z,9.18
2023-01-19T09:35:58.162Z,9.32
2023-01-19T09:38:25.794Z,9.15
2023-01-19T09:40:59.214Z,9.28
2023-01-19T09:43:47.739Z,9.54
2023-01-19T09:46:41.306Z,9.32
2023-01-19T09:49:18.295Z,8.95
2023-01-19T09:51:48.576Z,9.39
2023-01-19T09:54:18.180Z,9.64
2023-01-19T09:56:45.973Z,9.58
2023-01-19T09:59:27.903Z,9.35
2023-01-19T10:02:06.013Z,9.54
2023-01-19T10:04:40.933Z,9.30
2023-01-19T10:07:16.154Z,9.39
2023-01-19T10:09:57.138Z,9.28
2023-01-19T10:12:43.422Z,9.44
2023-01-19T10:15:23.029Z,9.47
2023-01-19T10:18:10.494Z,9.77
2023-01-19T10:20:42.462Z,9.62
2023-01-19T10:23:22.166Z,9.80
2023-01-19T10:25:49.349Z,9.65
2023-01-19T10:28:22.167Z,9.54
2023-01-19T10:30:48.794Z,10.19
2023-01-19T10:33:16.377Z,9.80
2023-01-19T10:35:45.190Z,10.07
2023-01-19T10:38:14.831Z,10.07
2023-01-19T10:40:54.966Z,10.24
2023-01-19T10:43:41.808Z,10.74
2023-01-19T10:46:20.021Z,10.11
2023-01-19T10:48:50.628Z,10.55
2023-01-19T10:51:17.570Z,10.42
2023-01-19T10:53:54.439Z,10.24
2023-01-19T10:56:24.661Z,10.47
2023-01-19T10:58:51.854Z,10.44
2023-01-19T11:01:27.476Z,10.56
2023-01-19T11:03:56.946Z,10.91
2023-01-19T11:06:29.893Z,10.53
2023-01-19T11:09:14.035Z,10.88
2023-01-19T11:11:47.682Z,10.49
2023-01-19T11:14:19.494Z,10.58
2023-01-19T11:16:49.699Z,10.79
2023-01-19T11:19:29.314Z,10.59
2023-01-19T11:22:22.716Z,10.63
2023-01-19T11:24:50.256Z,10.85
2023-01-19T11:27:19.494Z,10.59
2023-01-19T11:29:56.905Z,10.68
2023-01-19T11:32:27.044Z,10.30
2023-01-19T11:34:53.679Z,10.70
2023-01-19T11:37:20.511Z,10.99
2023-01-19T11:39:49.779Z,11.05
2023-01-19T11:42:18.664Z,10.99
2023-01-19T11:45:13.977Z,11.04
2023-01-19T11:47:47.841Z,10.79
2023-01-19T11:50:23.466Z,10.76
2023-01-19T11:53:05.861Z,10.87
2023-01-19T11:55:52.372Z,11.01
2023-01-19T11:58:19.938Z,10.89
2023-01-19T12:00:52.822Z,11.12
2023-01-19T12:03:31.855Z,10.91
2023-01-19T12:06:06.878Z,11.03
2023-01-19T12:08:40.824Z,10.93
2023-01-19T12:11:16.658Z,10.89
2023-01-19T12:13:45.523Z,10.94
2023-01-19T12:16:24.423Z,11.08
2023-01-19T12:19:24.932Z,11.32
2023-01-19T12:21:52.664Z,11.01
2023-01-19T12:24:28.936Z,10.82
2023-01-19T12:27:02.483Z,10.90
2023-01-19T12:29:33.298Z,10.92
2023-01-19T12:32:16.639Z,10.74
2023-01-19T12:34:47.805Z,10.72
2023-01-19T12:37:42.903Z,10.53
2023-01-19T12:40:24.127Z,10.80
2023-01-19T12:43:00.693Z,10.60
2023-01-19T12:45:35.269Z,10.67
2023-01-19T12:48:03.657Z,10.83
2023-01-19T12:50:37.575Z,10.75
2023-01-19T12:53:15.741Z,11.07
2023-01-19T12:56:08.558Z,10.76
2023-01-19T12:58:35.694Z,10.96
2023-01-19T13:01:14.989Z,11.03
2023-01-19T13:03:57.945Z,11.26
2023-01-19T13:07:08.350Z,11.33
2023-01-19T13:09:37.865Z,11.84
2023-01-19T13:12:14.051Z,11.89
2023-01-19T13:14:43.180Z,11.68
2023-01-19T13:17:23.027Z,11.81
2023-01-19T13:19:54.820Z,12.07
2023-01-19T13:22:46.158Z,12.08
2023-01-19T13:25:21.677Z,12.36
2023-01-19T13:27:49.905Z,11.90
2023-01-19T13:30:19.274Z,12.08
2023-01-19T13:32:46.707Z,11.69
2023-01-19T13:35:17.642Z,11.70
2023-01-19T13:37:45.310Z,12.16
2023-01-19T13:40:19.526Z,12.27
2023-01-19T13:42:48.063Z,12.35
2023-01-19T13:45:24.680Z,12.40
2023-01-19T13:47:52.963Z,12.21
2023-01-19T13:50:26.834Z,12.11
2023-01-19T13:52:55.795Z,12.29
2023-01-19T13:55:23.717Z,12.04
2023-01-19T13:57:51.698Z,12.06
2023-01-19T14:00:21.531Z,11.89
2023-01-19T14:02:55.455Z,12.20
2023-01-19T14:05:30.753Z,12.10
2023-01-19T14:08:01.105Z,12.35
2023-01-19T14:10:28.622Z,12.71
2023-01-19T14:13:04.121Z,12.73
2023-01-19T14:15:34.823Z,12.65
2023-01-19T14:18:18.856Z,12.53
2023-01-19T14:20:52.489Z,12.52
2023-01-19T14:23:38.089Z,12.80
2023-01-19T14:26:04.897Z,12.84
2023-01-19T14:28:39.494Z,12.92
2023-01-19T14:31:27.969Z,12.74
2023-01-19T14:33:55.685Z,12.98
2023-01-19T14:36:39.098Z,13.01
2023-01-19T14:39:13.894Z,13.03
2023-01-19T14:41:49.572Z,12.96
2023-01-19T14:44:27.568Z,12.82
2023-01-19T14:46:54.515Z,12.86
2023-01-19T14:49:30.180Z,13.06
2023-01-19T14:51:57.449Z,12.98
2023-01-19T14:54:31.301Z,13.03
2023-01-19T14:56:57.946Z,13.07
2023-01-19T14:59:24.481Z,13.16
2023-01-19T15:01:51.140Z,13.04
2023-01-19T15:04:17.746Z,12.87
2023-01-19T15:06:45.783Z,12.68
2023-01-19T15:09:13.477Z,12.79
2023-01-19T15:11:41.392Z,12.77
2023-01-19T15:14:13.552Z,12.91
2023-01-19T15:16:40.307Z,12.72
2023-01-19T15:19:10.992Z,12.77
2023-01-19T15:21:41.804Z,12.59
2023-01-19T15:24:11.078Z,12.59
2023-01-19T15:26:39.436Z,12.27
2023-01-19T15:29:25.289Z,12.30
2023-01-19T15:31:52.683Z,12.11
2023-01-19T15:34:20.272Z,11.56
2023-01-19T15:36:47.555Z,11.58
2023-01-19T15:39:14.102Z,11.47
2023-01-19T15:41:40.815Z,11.16
2023-01-19T15:44:11.193Z,11.15
2023-01-19T15:46:38.053Z,11.12
2023-01-19T15:49:05.852Z,11.07
2023-01-19T15:51:32.825Z,11.32
2023-01-19T15:53:59.362Z,11.32
2023-01-19T15:56:28.666Z,11.24
2023-01-19T15:58:56.895Z,11.29
2023-01-19T16:01:31.205Z,11.33
2023-01-19T16:04:00.333Z,11.26
2023-01-19T16:06:27.519Z,11.21
2023-01-19T16:08:59.097Z,11.44
2023-01-19T16:11:26.480Z,11.51
2023-01-19T16:13:52.999Z,11.17
2023-01-19T16:16:23.278Z,10.71
2023-01-19T16:18:50.152Z,10.81
2023-01-19T16:21:17.532Z,10.44
2023-01-19T16:23:44.060Z,10.52
2023-01-19T16:26:34.818Z,10.59
2023-01-19T16:29:08.495Z,10.59
2023-01-19T16:31:36.587Z,10.67
2023-01-19T16:34:03.438Z,10.52
2023-01-19T16:36:32.139Z,10.85
2023-01-19T16:39:10.359Z,10.63
2023-01-19T16:41:36.960Z,10.69
2023-01-19T16:44:04.783Z,10.62
2023-01-19T16:46:35.445Z,10.55
2023-01-19T16:49:07.479Z,10.46
2023-01-19T16:51:34.040Z,10.46
2023-01-19T16:54:00.890Z,10.53
2023-01-19T16:56:27.469Z,10.54
2023-01-19T16:58:55.151Z,10.11
2023-01-19T17:01:22.278Z,10.25
2023-01-19T17:03:49.262Z,10.38
2023-01-19T17:06:18.466Z,10.83
2023-01-19T17:08:45.051Z,10.99
2023-01-19T17:11:20.848Z,11.13
2023-01-19T17:14:08.394Z,11.19
2023-01-19T17:16:35.863Z,10.58
2023-01-19T17:19:05.518Z,10.67
2023-01-19T17:21:32.670Z,10.89
2023-01-19T17:23:59.355Z,11.08
2023-01-19T17:26:31.143Z,11.25
2023-01-19T17:29:02.263Z,11.21
2023-01-19T17:31:30.375Z,11.26
2023-01-19T17:33:58.725Z,11.33
2023-01-19T17:36:27.502Z,11.39
2023-01-19T17:38:56.624Z,11.25
2023-01-19T17:41:26.136Z,10.92
2023-01-19T17:43:53.188Z,10.91
2023-01-19T17:46:22.576Z,11.07
2023-01-19T17:48:57.109Z,11.10
2023-01-19T17:51:25.351Z,11.03
2023-01-19T17:53:52.690Z,10.76
2023-01-19T17:56:21.875Z,10.66
2023-01-19T17:58:49.288Z,10.56
2023-01-19T18:01:17.506Z,10.53
2023-01-19T18:03:44.638Z,10.54
2023-01-19T18:06:11.323Z,10.31
2023-01-19T18:08:39.400Z,9.99
2023-01-19T18:11:06.781Z,10.10
2023-01-19T18:13:33.720Z,9.90
2023-01-19T18:16:08.798Z,9.91
2023-01-19T18:18:35.955Z,10.00
2023-01-19T18:21:05.981Z,9.54
2023-01-19T18:23:32.822Z,9.47
2023-01-19T18:26:00.029Z,9.59
2023-01-19T18:28:26.928Z,9.52
2023-01-19T18:30:53.548Z,9.75
2023-01-19T18:33:20.484Z,9.65
2023-01-19T18:35:47.656Z,9.88
2023-01-19T18:38:15.013Z,9.87
2023-01-19T18:40:41.605Z,9.46
2023-01-19T18:43:09.579Z,9.10
2023-01-19T18:45:38.054Z,9.06
2023-01-19T18:48:04.920Z,8.78
2023-01-19T18:50:32.110Z,8.43
2023-01-19T18:52:59.143Z,8.59
2023-01-19T18:55:26.128Z,8.58
2023-01-19T18:57:53.322Z,8.69
2023-01-19T19:00:20.206Z,8.30
2023-01-19T19:02:46.723Z,8.64
2023-01-19T19:05:13.538Z,8.78
2023-01-19T19:07:40.032Z,8.51
2023-01-19T19:10:07.007Z,8.52
2023-01-19T19:12:33.756Z,8.40
2023-01-19T19:15:03.362Z,8.31
2023-01-19T19:17:29.850Z,8.54
2023-01-19T19:19:56.378Z,8.62
2023-01-19T19:22:25.459Z,8.74
2023-01-19T19:24:52.342Z,8.56
2023-01-19T19:27:18.885Z,8.20
2023-01-19T19:29:48.845Z,8.31
2023-01-19T19:32:20.391Z,8.26
2023-01-19T19:34:53.084Z,8.38
2023-01-19T19:37:20.176Z,8.49
2023-01-19T19:39:48.106Z,8.19
2023-01-19T19:42:15.438Z,8.26
2023-01-19T19:44:41.937Z,8.31
2023-01-19T19:47:08.557Z,8.39
2023-01-19T19:49:35.053Z,8.22
2023-01-19T19:52:01.616Z,8.45
2023-01-19T19:54:28.141Z,8.00
2023-01-19T19:56:54.617Z,8.06
2023-01-19T19:59:21.111Z,8.00
2023-01-19T20:01:49.728Z,8.09
2023-01-19T20:04:19.945Z,8.15
2023-01-19T20:06:48.252Z,8.30
2023-01-19T20:09:16.635Z,8.19
2023-01-19T20:11:46.488Z,7.87
2023-01-19T20:14:15.989Z,8.08
2023-01-19T20:16:42.742Z,7.82
2023-01-19T20:19:10.094Z,8.03
2023-01-19T20:21:38.451Z,7.94
2023-01-19T20:24:13.156Z,7.95
2023-01-19T20:26:42.628Z,7.84
2023-01-19T20:29:24.510Z,7.84
2023-01-19T20:31:53.917Z,8.20
2023-01-19T20:34:25.004Z,7.89
2023-01-19T20:36:53.679Z,7.94
2023-01-19T20:39:21.621Z,7.65
2023-01-19T20:41:50.847Z,7.88
2023-01-19T20:44:23.326Z,8.02
2023-01-19T20:46:50.144Z,8.00
2023-01-19T20:49:16.776Z,7.79
2023-01-19T20:51:45.463Z,8.10
2023-01-19T20:54:14.841Z,8.07
2023-01-19T20:56:41.802Z,7.79
2023-01-19T20:59:09.706Z,8.13
2023-01-19T21:01:36.326Z,8.19
2023-01-19T21:04:03.544Z,8.19
2023-01-19T21:06:30.036Z,8.28
2023-01-19T21:08:57.519Z,8.06
2023-01-19T21:11:24.667Z,8.03
2023-01-19T21:13:55.386Z,8.12
2023-01-19T21:16:26.588Z,8.20
2023-01-19T21:18:53.735Z,8.04
2023-01-19T21:21:29.871Z,8.08
2023-01-19T21:24:01.589Z,7.99
2023-01-19T21:26:33.562Z,8.06
2023-01-19T21:29:02.001Z,8.27
2023-01-19T21:31:28.791Z,8.19
2023-01-19T21:33:58.666Z,8.22
2023-01-19T21:36:25.905Z,8.17
2023-01-19T21:38:55.781Z,8.07
2023-01-19T21:41:22.696Z,7.95
2023-01-19T21:43:49.235Z,8.12
2023-01-19T21:46:29.290Z,7.90
2023-01-19T21:49:04.722Z,7.42
2023-01-19T21:51:33.743Z,7.83
2023-01-19T21:54:01.853Z,7.96
2023-01-19T21:56:29.744Z,7.72
2023-01-19T21:58:57.770Z,7.89
2023-01-19T22:01:25.009Z,7.79
2023-01-19T22:03:56.569Z,7.71
2023-01-19T22:06:24.740Z,7.75
2023-01-19T22:08:51.397Z,7.90
2023-01-19T22:11:19.709Z,7.89
2023-01-19T22:13:46.474Z,8.09
2023-01-19T22:16:15.375Z,8.12
2023-01-19T22:18:49.487Z,7.94
2023-01-19T22:21:18.398Z,7.67
2023-01-19T22:23:51.715Z,7.87
2023-01-19T22:26:18.876Z,7.99
2023-01-19T22:28:45.753Z,8.32
2023-01-19T22:31:14.552Z,8.14
2023-01-19T22:33:42.595Z,7.97
2023-01-19T22:36:23.739Z,8.04
2023-01-19T22:38:56.014Z,8.08
2023-01-19T22:41:25.133Z,7.97
2023-01-19T22:43:53.874Z,8.18
2023-01-19T22:46:22.250Z,8.33
2023-01-19T22:48:49.805Z,7.99
2023-01-19T22:51:17.823Z,8.18
2023-01-19T22:53:44.774Z,8.06
2023-01-19T22:56:19.831Z,8.40
2023-01-19T22:58:47.027Z,8.34
2023-01-19T23:01:19.277Z,8.28
2023-01-19T23:03:46.607Z,8.05
2023-01-19T23:06:15.955Z,8.22
2023-01-19T23:08:42.936Z,8.22
2023-01-19T23:11:12.702Z,8.03
2023-01-19T23:13:39.354Z,7.56
2023-01-19T23:16:07.075Z,8.00
2023-01-19T23:18:33.825Z,8.18
2023-01-19T23:21:04.736Z,8.08
2023-01-19T23:23:31.891Z,8.15
2023-01-19T23:26:18.659Z,8.50
2023-01-19T23:28:46.576Z,7.93
2023-01-19T23:31:14.181Z,8.04
2023-01-19T23:33:41.561Z,7.98
2023-01-19T23:36:08.508Z,8.20
2023-01-19T23:38:35.008Z,8.26
2023-01-19T23:41:01.514Z,8.09
2023-01-19T23:43:28.036Z,8.20
2023-01-19T23:45:54.893Z,7.77
2023-01-19T23:48:21.452Z,7.74
2023-01-19T23:50:47.938Z,7.87
2023-01-19T23:53:14.879Z,7.52
2023-01-19T23:55:41.931Z,7.54
2023-01-19T23:58:08.447Z,7.70
